Time;durP1;ratioP1;P1;durP2;ratioP2;P2;SDS_P1;SDS_P2;PMS_P1;PMS_P2;Temp;Humidity;BMP_temperature;BMP_pressure;BME280_temperature;BME280_humidity;BME280_pressure;Samples;Min_cycle;Max_cycle;Signal;HPM_P1;HPM_P2
2021/12/19 00:00:15;;;;;;;0.40;0.40;;;;;;;;;;7396747;19;20014;-59
2021/12/19 00:03:01;;;;;;;0.82;0.60;;;;;;;;;;7397018;19;20100;-60
2021/12/19 00:11:16;;;;;;;0.90;0.60;;;;;;;;;;7393922;19;20528;-61
2021/12/19 00:13:44;;;;;;;1.67;0.50;;;;;;;;;;7396454;19;20502;-61
2021/12/19 00:16:12;;;;;;;0.75;0.55;;;;;;;;;;7396447;19;20010;-60
2021/12/19 00:18:43;;;;;;;0.65;0.35;;;;;;;;;;7396259;19;20026;-61
2021/12/19 00:21:11;;;;;;;0.55;0.50;;;;;;;;;;7396010;19;20030;-60
2021/12/19 00:23:39;;;;;;;1.25;0.80;;;;;;;;;;7396017;19;20489;-62
2021/12/19 00:26:08;;;;;;;1.25;0.60;;;;;;;;;;7395772;19;21472;-60
2021/12/19 00:28:36;;;;;;;1.08;0.77;;;;;;;;;;7394924;19;20006;-62
2021/12/19 00:31:04;;;;;;;0.75;0.60;;;;;;;;;;7394537;19;20015;-60
2021/12/19 00:33:32;;;;;;;0.60;0.60;;;;;;;;;;7395973;19;20078;-62
2021/12/19 00:36:00;;;;;;;1.83;0.75;;;;;;;;;;7395692;19;20010;-62
2021/12/19 00:38:27;;;;;;;0.73;0.40;;;;;;;;;;7395501;19;20016;-61
2021/12/19 00:40:56;;;;;;;0.88;0.63;;;;;;;;;;7395580;19;20010;-60
2021/12/19 00:43:43;;;;;;;0.57;0.57;;;;;;;;;;7395305;19;20015;-61
2021/12/19 00:46:13;;;;;;;1.52;0.65;;;;;;;;;;7393089;19;20014;-60
2021/12/19 00:48:49;;;;;;;0.77;0.65;;;;;;;;;;7394403;19;20026;-62
2021/12/19 00:51:22;;;;;;;1.90;0.70;;;;;;;;;;7395339;19;20034;-62
2021/12/19 00:53:51;;;;;;;0.53;0.50;;;;;;;;;;7397471;19;20010;-61
2021/12/19 00:56:19;;;;;;;0.85;0.68;;;;;;;;;;7395326;19;20014;-62
2021/12/19 00:58:47;;;;;;;2.58;0.60;;;;;;;;;;7394960;19;20097;-60
2021/12/19 01:01:14;;;;;;;0.98;0.60;;;;;;;;;;7394594;19;20018;-61
2021/12/19 01:03:44;;;;;;;0.70;0.55;;;;;;;;;;7394842;19;20018;-60
2021/12/19 01:06:12;;;;;;;1.42;0.70;;;;;;;;;;7394260;19;20014;-60
2021/12/19 01:08:40;;;;;;;1.48;0.82;;;;;;;;;;7393775;19;20019;-60
2021/12/19 01:11:07;;;;;;;1.13;0.73;;;;;;;;;;7394934;19;20014;-60
2021/12/19 01:13:34;;;;;;;0.80;0.73;;;;;;;;;;7394487;19;20007;-62
2021/12/19 01:16:02;;;;;;;1.35;0.70;;;;;;;;;;7392436;19;20400;-61
2021/12/19 01:18:30;;;;;;;1.73;0.73;;;;;;;;;;7394522;19;20013;-60
2021/12/19 01:20:58;;;;;;;0.80;0.50;;;;;;;;;;7394159;19;20483;-62
2021/12/19 01:23:27;;;;;;;0.77;0.60;;;;;;;;;;7394076;19;20010;-61
2021/12/19 01:25:54;;;;;;;1.25;0.70;;;;;;;;;;7392600;19;20006;-59
2021/12/19 01:28:21;;;;;;;1.58;0.73;;;;;;;;;;7393669;19;20010;-61
2021/12/19 01:30:49;;;;;;;1.05;0.65;;;;;;;;;;7394086;19;20471;-60
2021/12/19 01:33:16;;;;;;;0.90;0.73;;;;;;;;;;7393970;19;20010;-61
2021/12/19 01:35:44;;;;;;;0.90;0.70;;;;;;;;;;7393751;19;20022;-61
2021/12/19 01:38:11;;;;;;;0.82;0.73;;;;;;;;;;7393640;19;20470;-59
2021/12/19 01:40:40;;;;;;;1.17;0.60;;;;;;;;;;7393811;19;20010;-60
2021/12/19 01:43:07;;;;;;;1.05;0.55;;;;;;;;;;7393896;19;20081;-60
2021/12/19 01:45:38;;;;;;;1.00;0.70;;;;;;;;;;7392185;19;20011;-59
2021/12/19 01:48:11;;;;;;;2.60;0.85;;;;;;;;;;7393073;19;20006;-62
2021/12/19 01:50:40;;;;;;;1.50;0.80;;;;;;;;;;7393162;19;20368;-61
2021/12/19 01:53:14;;;;;;;1.15;0.80;;;;;;;;;;7393617;19;20010;-59
2021/12/19 01:55:45;;;;;;;3.50;0.80;;;;;;;;;;7392766;19;20505;-60
2021/12/19 01:58:13;;;;;;;105.43;37.90;;;;;;;;;;7393043;19;20010;-62
2021/12/19 02:00:53;;;;;;;13.60;5.28;;;;;;;;;;7392875;19;20031;-61
2021/12/19 02:03:21;;;;;;;1.83;0.90;;;;;;;;;;7393272;19;20006;-59
2021/12/19 02:05:49;;;;;;;0.70;0.63;;;;;;;;;;7392699;19;20006;-59
2021/12/19 02:08:17;;;;;;;0.70;0.70;;;;;;;;;;7393382;19;20006;-61
2021/12/19 02:10:45;;;;;;;1.85;0.82;;;;;;;;;;7392572;19;20046;-59
2021/12/19 02:13:15;;;;;;;1.42;0.88;;;;;;;;;;7392849;19;20014;-61
2021/12/19 02:15:45;;;;;;;1.67;0.70;;;;;;;;;;7391523;19;20010;-60
2021/12/19 02:18:15;;;;;;;1.27;0.80;;;;;;;;;;7392346;19;20474;-57
2021/12/19 02:21:09;;;;;;;1.52;0.82;;;;;;;;;;7392089;19;20010;-57
2021/12/19 02:23:36;;;;;;;;;;;;;;;;;;7392087;19;20018;-58
2021/12/19 02:26:04;;;;;;;2.17;0.70;;;;;;;;;;7392337;19;19942;-60
2021/12/19 02:28:31;;;;;;;1.17;0.60;;;;;;;;;;7391649;19;20034;-59
2021/12/19 02:30:59;;;;;;;0.90;0.70;;;;;;;;;;7391634;19;20018;-59
2021/12/19 02:33:31;;;;;;;1.88;1.20;;;;;;;;;;7392293;19;20029;-58
2021/12/19 02:36:07;;;;;;;2.30;0.55;;;;;;;;;;7391815;19;20010;-62
2021/12/19 02:39:19;;;;;;;1.75;0.60;;;;;;;;;;7392133;19;20016;-62
2021/12/19 02:49:43;;;;;;;1.02;0.82;;;;;;;;;;7389928;19;20025;-58
2021/12/19 02:52:12;;;;;;;0.63;0.63;;;;;;;;;;7391382;19;20378;-56
2021/12/19 02:54:39;;;;;;;1.77;0.63;;;;;;;;;;7394677;19;20014;-61
2021/12/19 02:57:07;;;;;;;0.98;0.70;;;;;;;;;;7391186;19;20007;-57
2021/12/19 02:59:37;;;;;;;2.05;0.60;;;;;;;;;;7391163;19;20089;-58
2021/12/19 03:02:04;;;;;;;1.10;0.70;;;;;;;;;;7389360;19;20482;-58
2021/12/19 03:04:32;;;;;;;0.73;0.50;;;;;;;;;;7390937;19;20015;-56
2021/12/19 03:07:00;;;;;;;2.33;0.75;;;;;;;;;;7391106;19;20078;-57
2021/12/19 03:17:59;;;;;;;1.63;1.15;;;;;;;;;;7389894;19;20010;-52
2021/12/19 03:20:28;;;;;;;1.00;0.63;;;;;;;;;;7390891;19;20074;-55
2021/12/19 03:22:58;;;;;;;1.13;0.90;;;;;;;;;;7390508;19;20046;-56
2021/12/19 03:25:27;;;;;;;0.80;0.80;;;;;;;;;;7390636;19;20078;-55
2021/12/19 03:27:55;;;;;;;2.33;0.70;;;;;;;;;;7393872;19;20363;-55
2021/12/19 03:30:22;;;;;;;0.55;0.55;;;;;;;;;;7396059;19;20034;-55
2021/12/19 03:32:50;;;;;;;1.00;0.70;;;;;;;;;;7396528;19;20073;-56
2021/12/19 03:35:18;;;;;;;2.25;0.98;;;;;;;;;;7397612;19;20018;-57
2021/12/19 03:37:47;;;;;;;1.45;0.63;;;;;;;;;;7397663;19;20010;-56
2021/12/19 03:40:22;;;;;;;1.98;0.75;;;;;;;;;;7396005;19;20510;-54
2021/12/19 03:42:53;;;;;;;1.40;0.50;;;;;;;;;;7397524;19;20002;-57
2021/12/19 03:45:23;;;;;;;1.75;0.70;;;;;;;;;;7396195;19;20530;-59
2021/12/19 03:47:51;;;;;;;1.38;1.00;;;;;;;;;;7398087;19;20077;-56
2021/12/19 03:50:22;;;;;;;2.30;0.77;;;;;;;;;;7394532;19;20018;-61
2021/12/19 03:52:53;;;;;;;0.95;0.60;;;;;;;;;;7397818;19;20006;-56
2021/12/19 03:55:22;;;;;;;1.30;0.80;;;;;;;;;;7397232;19;20034;-54
2021/12/19 03:57:49;;;;;;;3.53;1.00;;;;;;;;;;7397382;19;20010;-62
2021/12/19 04:00:23;;;;;;;1.30;0.80;;;;;;;;;;7396953;19;20007;-57
2021/12/19 04:02:57;;;;;;;1.25;0.88;;;;;;;;;;7397561;19;20078;-54
2021/12/19 04:05:27;;;;;;;4.63;1.48;;;;;;;;;;7397465;19;20034;-55
2021/12/19 04:07:55;;;;;;;3.50;1.63;;;;;;;;;;7397053;19;20014;-54
2021/12/19 04:10:24;;;;;;;4.20;2.20;;;;;;;;;;7394611;19;20078;-56
2021/12/19 04:12:51;;;;;;;3.30;2.00;;;;;;;;;;7396962;19;20017;-56
2021/12/19 04:15:19;;;;;;;6.25;2.35;;;;;;;;;;7396105;19;20014;-62
2021/12/19 04:17:46;;;;;;;5.47;2.40;;;;;;;;;;7396294;19;20027;-53
2021/12/19 04:20:18;;;;;;;5.00;1.90;;;;;;;;;;7396260;19;20010;-53
2021/12/19 04:22:47;;;;;;;3.78;2.30;;;;;;;;;;7396594;19;20021;-55
2021/12/19 04:25:15;;;;;;;3.10;1.70;;;;;;;;;;7395224;19;20078;-54
2021/12/19 04:27:44;;;;;;;4.88;1.73;;;;;;;;;;7395843;19;20018;-62
2021/12/19 04:30:15;;;;;;;5.55;1.73;;;;;;;;;;7394418;19;20010;-51
2021/12/19 04:32:46;;;;;;;2.90;1.40;;;;;;;;;;7395614;19;20371;-56
2021/12/19 04:35:14;;;;;;;2.88;1.50;;;;;;;;;;7395597;19;20031;-57
2021/12/19 04:40:37;;;;;;;2.83;1.58;;;;;;;;;;7395248;19;20014;-57
2021/12/19 04:51:35;;;;;;;2.83;1.48;;;;;;;;;;7395390;19;20015;-62
2021/12/19 04:56:50;;;;;;;2.45;1.50;;;;;;;;;;7394903;19;20352;-62
2021/12/19 05:15:45;;;;;;;2.20;1.55;;;;;;;;;;7394003;19;20046;-56
2021/12/19 05:18:13;;;;;;;2.38;1.50;;;;;;;;;;7394307;19;20495;-53
2021/12/19 05:20:51;;;;;;;4.35;1.65;;;;;;;;;;7394014;19;20113;-59
2021/12/19 05:26:00;;;;;;;2.13;1.50;;;;;;;;;;7393564;19;20017;-56
2021/12/19 05:28:27;;;;;;;2.78;1.80;;;;;;;;;;7393823;19;20006;-53
2021/12/19 05:30:55;;;;;;;4.25;1.70;;;;;;;;;;7390908;19;20590;-61
2021/12/19 05:33:22;;;;;;;4.90;1.80;;;;;;;;;;7394122;19;20014;-59
2021/12/19 05:36:10;;;;;;;2.25;1.40;;;;;;;;;;7394136;19;20028;-62
2021/12/19 05:46:59;;;;;;;6.68;2.00;;;;;;;;;;7390951;19;20010;-54
2021/12/19 05:49:27;;;;;;;4.28;1.73;;;;;;;;;;7392441;19;20506;-55
2021/12/19 05:51:55;;;;;;;3.22;2.00;;;;;;;;;;7392434;19;20022;-53
2021/12/19 05:54:23;;;;;;;2.65;1.80;;;;;;;;;;7396739;19;20035;-62
2021/12/19 05:56:51;;;;;;;3.55;1.90;;;;;;;;;;7393314;19;20014;-59
2021/12/19 05:59:19;;;;;;;3.38;1.80;;;;;;;;;;7392440;19;20509;-57
2021/12/19 06:01:47;;;;;;;3.60;1.77;;;;;;;;;;7393015;19;20479;-55
2021/12/19 06:04:14;;;;;;;3.33;1.75;;;;;;;;;;7393068;19;20007;-52
2021/12/19 06:06:42;;;;;;;2.22;1.55;;;;;;;;;;7393115;19;20011;-54
2021/12/19 06:09:10;;;;;;;3.35;2.42;;;;;;;;;;7392081;19;20024;-55
2021/12/19 06:11:37;;;;;;;6.65;1.77;;;;;;;;;;7392630;19;20031;-61
2021/12/19 06:14:08;;;;;;;3.85;1.80;;;;;;;;;;7392389;19;20007;-56
2021/12/19 06:16:36;;;;;;;4.03;1.95;;;;;;;;;;7392613;19;20038;-57
2021/12/19 06:19:04;;;;;;;4.80;1.70;;;;;;;;;;7392537;19;20030;-59
2021/12/19 06:21:32;;;;;;;3.35;2.13;;;;;;;;;;7392160;19;20070;-51
2021/12/19 06:24:00;;;;;;;3.65;2.17;;;;;;;;;;7392179;19;20091;-54
2021/12/19 06:26:28;;;;;;;5.22;1.85;;;;;;;;;;7391763;19;20034;-58
2021/12/19 06:28:55;;;;;;;3.28;1.98;;;;;;;;;;7393066;19;20010;-54
2021/12/19 06:31:22;;;;;;;26.65;9.60;;;;;;;;;;7390443;19;20023;-55
2021/12/19 06:33:50;;;;;;;4.60;2.30;;;;;;;;;;7392205;19;20014;-56
2021/12/19 06:36:17;;;;;;;5.10;2.10;;;;;;;;;;7391947;19;20021;-54
2021/12/19 06:38:45;;;;;;;4.45;1.85;;;;;;;;;;7392239;19;20006;-61
2021/12/19 06:41:13;;;;;;;3.90;2.28;;;;;;;;;;7391328;19;20031;-55
2021/12/19 06:43:40;;;;;;;3.90;2.15;;;;;;;;;;7391931;19;20011;-61
2021/12/19 06:46:08;;;;;;;5.45;1.90;;;;;;;;;;7390066;19;20022;-51
2021/12/19 06:48:37;;;;;;;3.97;1.80;;;;;;;;;;7391815;19;20070;-53
2021/12/19 06:51:06;;;;;;;3.47;1.92;;;;;;;;;;7388145;19;20014;-52
2021/12/19 06:53:35;;;;;;;3.58;1.80;;;;;;;;;;7392249;19;20029;-52
2021/12/19 06:56:02;;;;;;;3.22;1.88;;;;;;;;;;7391167;19;20029;-51
2021/12/19 06:58:30;;;;;;;4.22;2.30;;;;;;;;;;7391422;19;20006;-53
2021/12/19 07:00:57;;;;;;;3.92;1.95;;;;;;;;;;7391214;19;20017;-53
2021/12/19 07:03:25;;;;;;;3.45;1.98;;;;;;;;;;7399228;19;20070;-62
2021/12/19 07:05:52;;;;;;;3.85;1.88;;;;;;;;;;7399728;19;20032;-60
2021/12/19 07:08:21;;;;;;;5.28;2.17;;;;;;;;;;7398695;19;20014;-54
2021/12/19 07:10:49;;;;;;;3.70;1.92;;;;;;;;;;7396358;19;20034;-54
2021/12/19 07:13:20;;;;;;;4.05;2.15;;;;;;;;;;7398941;19;20074;-56
2021/12/19 07:15:49;;;;;;;2.78;1.67;;;;;;;;;;7401567;19;20038;-62
2021/12/19 07:18:17;;;;;;;4.13;1.90;;;;;;;;;;7398669;19;20089;-58
2021/12/19 07:20:45;;;;;;;4.38;2.22;;;;;;;;;;7398079;19;20015;-61
2021/12/19 07:23:16;;;;;;;4.00;1.90;;;;;;;;;;7398592;19;20011;-52
2021/12/19 07:25:43;;;;;;;5.22;2.22;;;;;;;;;;7398531;19;20015;-54
2021/12/19 07:28:12;;;;;;;4.00;1.95;;;;;;;;;;7398390;19;20010;-52
2021/12/19 07:30:40;;;;;;;3.85;2.05;;;;;;;;;;7396309;19;20078;-60
2021/12/19 07:33:10;;;;;;;3.42;1.75;;;;;;;;;;7397730;19;20013;-52
2021/12/19 07:35:41;;;;;;;3.15;1.63;;;;;;;;;;7396537;19;20007;-51
2021/12/19 07:38:11;;;;;;;4.00;2.22;;;;;;;;;;7397939;19;20513;-55
2021/12/19 07:40:46;;;;;;;3.83;1.63;;;;;;;;;;7397942;19;20010;-54
2021/12/19 07:43:15;;;;;;;4.97;1.98;;;;;;;;;;7397529;19;20014;-59
2021/12/19 07:45:43;;;;;;;3.95;1.88;;;;;;;;;;7395622;19;20021;-54
2021/12/19 07:48:11;;;;;;;4.30;2.05;;;;;;;;;;7397267;19;20028;-62
2021/12/19 07:50:39;;;;;;;5.93;2.40;;;;;;;;;;7395826;19;20492;-55
2021/12/19 07:53:07;;;;;;;4.32;2.20;;;;;;;;;;7397495;19;20482;-58
2021/12/19 07:55:35;;;;;;;3.63;1.80;;;;;;;;;;7397471;19;20030;-53
2021/12/19 07:58:02;;;;;;;4.35;2.13;;;;;;;;;;7397133;19;20078;-59
2021/12/19 08:00:30;;;;;;;4.78;2.45;;;;;;;;;;7396918;19;20018;-61
2021/12/19 08:02:58;;;;;;;4.55;2.22;;;;;;;;;;7396915;19;20020;-53
2021/12/19 08:05:25;;;;;;;16.77;6.53;;;;;;;;;;7397572;19;20010;-55
2021/12/19 08:08:00;;;;;;;6.38;2.17;;;;;;;;;;7397825;19;20010;-52
2021/12/19 08:13:00;;;;;;;5.20;2.40;;;;;;;;;;7395084;19;20049;-52
2021/12/19 08:15:28;;;;;;;6.00;2.40;;;;;;;;;;7396736;19;20014;-53
2021/12/19 08:17:55;;;;;;;4.43;2.33;;;;;;;;;;7397081;19;20011;-59
2021/12/19 08:20:24;;;;;;;4.43;2.28;;;;;;;;;;7396958;19;20042;-56
2021/12/19 08:22:53;;;;;;;3.72;2.25;;;;;;;;;;7396293;19;20015;-52
2021/12/19 08:25:21;;;;;;;4.60;1.95;;;;;;;;;;7395959;19;20011;-62
2021/12/19 08:27:49;;;;;;;3.88;2.50;;;;;;;;;;7396736;19;20010;-51
2021/12/19 08:30:17;;;;;;;4.70;1.88;;;;;;;;;;7395242;19;20018;-62
2021/12/19 08:32:44;;;;;;;129.63;39.22;;;;;;;;;;7394509;19;20007;-53
2021/12/19 08:35:12;;;;;;;21.23;7.88;;;;;;;;;;7395943;19;20422;-52
2021/12/19 08:37:40;;;;;;;7.95;3.00;;;;;;;;;;7395487;19;20090;-51
2021/12/19 08:40:11;;;;;;;4.47;2.25;;;;;;;;;;7395023;19;20428;-55
2021/12/19 08:42:39;;;;;;;5.32;2.00;;;;;;;;;;7394040;19;20592;-60
2021/12/19 08:45:07;;;;;;;5.22;2.08;;;;;;;;;;7394805;19;20024;-52
2021/12/19 08:47:35;;;;;;;4.18;2.30;;;;;;;;;;7393970;19;20006;-61
2021/12/19 08:50:05;;;;;;;3.85;2.35;;;;;;;;;;7393376;19;20022;-56
2021/12/19 08:52:33;;;;;;;3.80;1.95;;;;;;;;;;7396148;19;20015;-60
2021/12/19 08:55:00;;;;;;;4.75;1.83;;;;;;;;;;7399351;19;20034;-55
2021/12/19 08:57:28;;;;;;;4.68;2.30;;;;;;;;;;7394987;19;20044;-58
2021/12/19 08:59:57;;;;;;;5.50;1.98;;;;;;;;;;7395349;19;20007;-57
2021/12/19 09:02:25;;;;;;;3.97;1.92;;;;;;;;;;7395377;19;20470;-54
2021/12/19 09:04:52;;;;;;;3.00;1.80;;;;;;;;;;7395088;19;20010;-54
2021/12/19 09:07:21;;;;;;;5.07;1.98;;;;;;;;;;7395096;19;20011;-61
2021/12/19 09:09:49;;;;;;;40.85;16.58;;;;;;;;;;7394495;19;20123;-51
2021/12/19 09:12:17;;;;;;;8.40;4.10;;;;;;;;;;7395057;19;20010;-57
2021/12/19 09:14:44;;;;;;;7.60;3.97;;;;;;;;;;7394461;19;20011;-60
2021/12/19 09:17:11;;;;;;;6.40;4.53;;;;;;;;;;7394628;19;20010;-55
2021/12/19 09:19:39;;;;;;;5.90;3.55;;;;;;;;;;7394264;19;20093;-60
2021/12/19 09:22:06;;;;;;;9.27;6.05;;;;;;;;;;7394449;19;20035;-58
2021/12/19 09:24:35;;;;;;;17.55;11.82;;;;;;;;;;7393238;19;20021;-56
2021/12/19 09:27:03;;;;;;;7.13;4.75;;;;;;;;;;7393216;19;20018;-61
2021/12/19 09:29:30;;;;;;;5.60;3.30;;;;;;;;;;7394303;19;20006;-62
2021/12/19 09:31:59;;;;;;;3.58;1.80;;;;;;;;;;7392269;19;20236;-55
2021/12/19 09:34:28;;;;;;;3.38;1.70;;;;;;;;;;7394454;19;20006;-59
2021/12/19 09:36:57;;;;;;;6.22;2.90;;;;;;;;;;7394277;19;20010;-55
2021/12/19 09:39:25;;;;;;;4.30;2.20;;;;;;;;;;7394299;19;20007;-56
2021/12/19 09:41:56;;;;;;;3.35;1.50;;;;;;;;;;7393928;19;20007;-60
2021/12/19 09:44:24;;;;;;;3.60;2.28;;;;;;;;;;7393715;19;20017;-57
2021/12/19 09:46:52;;;;;;;3.70;1.92;;;;;;;;;;7391783;19;20038;-52
2021/12/19 09:49:20;;;;;;;20.17;7.95;;;;;;;;;;7393733;19;20015;-55
2021/12/19 09:51:49;;;;;;;8.23;4.15;;;;;;;;;;7391577;19;20018;-55
2021/12/19 09:54:17;;;;;;;6.20;2.63;;;;;;;;;;7395957;19;20038;-57
2021/12/19 09:56:46;;;;;;;2.35;1.30;;;;;;;;;;7393459;19;20038;-59
2021/12/19 09:59:18;;;;;;;2.20;1.48;;;;;;;;;;7392973;19;20042;-61
2021/12/19 10:01:47;;;;;;;2.60;1.60;;;;;;;;;;7393260;19;20003;-55
2021/12/19 10:04:30;;;;;;;4.57;2.60;;;;;;;;;;7392949;19;20006;-54
2021/12/19 10:07:18;;;;;;;4.40;2.08;;;;;;;;;;7393008;19;20011;-57
2021/12/19 10:10:00;;;;;;;7.20;3.90;;;;;;;;;;7392698;19;20038;-59
2021/12/19 10:15:06;;;;;;;5.32;2.60;;;;;;;;;;7392537;19;20010;-54
2021/12/19 10:17:34;;;;;;;5.13;3.13;;;;;;;;;;7392876;19;20050;-56
2021/12/19 10:20:05;;;;;;;7.63;5.75;;;;;;;;;;7392108;19;20035;-55
2021/12/19 10:22:40;;;;;;;5.85;4.07;;;;;;;;;;7392568;19;20021;-52
2021/12/19 10:25:18;;;;;;;3.60;2.40;;;;;;;;;;7390590;19;20479;-61
2021/12/19 10:28:01;;;;;;;6.22;3.30;;;;;;;;;;7392474;19;20038;-58
2021/12/19 10:30:46;;;;;;;3.47;2.30;;;;;;;;;;7391600;19;20014;-57
2021/12/19 10:33:14;;;;;;;7.75;5.05;;;;;;;;;;7391740;19;20015;-53
2021/12/19 10:35:48;;;;;;;1.88;1.40;;;;;;;;;;7391763;19;20010;-48
2021/12/19 10:38:22;;;;;;;30.05;11.15;;;;;;;;;;7391567;19;20356;-52
2021/12/19 10:40:54;;;;;;;8.75;5.20;;;;;;;;;;7391405;19;20020;-61
2021/12/19 10:43:26;;;;;;;2.58;1.40;;;;;;;;;;7392025;19;20010;-56
2021/12/19 10:45:59;;;;;;;3.42;1.40;;;;;;;;;;7390990;19;20017;-54
2021/12/19 10:48:43;;;;;;;1.85;1.40;;;;;;;;;;7392147;19;20037;-63
2021/12/19 10:51:16;;;;;;;2.15;1.50;;;;;;;;;;7390387;19;20026;-49
2021/12/19 10:53:45;;;;;;;2.00;1.30;;;;;;;;;;7393161;19;20602;-52
2021/12/19 10:56:16;;;;;;;1.75;1.10;;;;;;;;;;7391236;19;20011;-53
2021/12/19 10:58:53;;;;;;;3.80;1.40;;;;;;;;;;7391519;19;20010;-58
2021/12/19 11:01:29;;;;;;;2.72;1.70;;;;;;;;;;7391067;19;20470;-55
2021/12/19 11:04:17;;;;;;;1.92;1.33;;;;;;;;;;7391702;19;20037;-55
2021/12/19 11:06:47;;;;;;;2.42;1.40;;;;;;;;;;7391080;19;20014;-64
2021/12/19 11:09:17;;;;;;;3.03;1.60;;;;;;;;;;7390930;19;20010;-56
2021/12/19 11:11:54;;;;;;;5.78;2.08;;;;;;;;;;7389684;19;20017;-58
2021/12/19 11:14:39;;;;;;;15.70;6.55;;;;;;;;;;7391256;19;20025;-51
2021/12/19 11:17:12;;;;;;;4.70;2.00;;;;;;;;;;7390466;19;20492;-51
2021/12/19 11:19:39;;;;;;;4.40;1.70;;;;;;;;;;7390882;19;20010;-59
2021/12/19 11:22:23;;;;;;;5.07;1.98;;;;;;;;;;7390498;19;20017;-59
2021/12/19 11:24:53;;;;;;;2.92;1.40;;;;;;;;;;7391021;19;20019;-60
2021/12/19 11:27:21;;;;;;;1.52;1.17;;;;;;;;;;7390482;19;20014;-57
2021/12/19 11:29:53;;;;;;;1.58;0.80;;;;;;;;;;7390784;19;20022;-61
2021/12/19 11:32:34;;;;;;;2.72;1.35;;;;;;;;;;7388808;19;20046;-51
2021/12/19 11:35:23;;;;;;;1.00;0.90;;;;;;;;;;7390148;19;20359;-62
2021/12/19 11:37:55;;;;;;;2.03;1.00;;;;;;;;;;7390347;19;20020;-51
2021/12/19 11:40:23;;;;;;;3.15;1.10;;;;;;;;;;7390536;19;20031;-51
2021/12/19 11:43:04;;;;;;;1.17;1.02;;;;;;;;;;7389978;19;20029;-52
2021/12/19 11:45:45;;;;;;;2.08;1.35;;;;;;;;;;7388652;19;20019;-53
2021/12/19 11:48:22;;;;;;;2.25;1.30;;;;;;;;;;7390729;19;20011;-53
2021/12/19 11:51:05;;;;;;;1.52;1.17;;;;;;;;;;7396950;19;20106;-58
2021/12/19 11:53:33;;;;;;;2.15;1.25;;;;;;;;;;7398302;19;20030;-60
2021/12/19 11:56:08;;;;;;;1.60;1.25;;;;;;;;;;7397315;19;20010;-51
2021/12/19 11:58:52;;;;;;;2.22;1.27;;;;;;;;;;7397066;19;20007;-54
2021/12/19 12:01:24;;;;;;;1.73;1.40;;;;;;;;;;7396900;19;20046;-58
2021/12/19 12:03:57;;;;;;;2.30;1.35;;;;;;;;;;7396926;19;20010;-60
2021/12/19 12:06:34;;;;;;;2.42;1.60;;;;;;;;;;7397561;19;20010;-58
2021/12/19 12:09:21;;;;;;;3.00;1.58;;;;;;;;;;7397167;19;20010;-53
2021/12/19 12:12:01;;;;;;;11.15;5.25;;;;;;;;;;7395164;19;20019;-54
2021/12/19 12:14:31;;;;;;;19.48;7.95;;;;;;;;;;7396830;19;20018;-55
2021/12/19 12:17:04;;;;;;;5.35;2.90;;;;;;;;;;7396477;19;20080;-54
2021/12/19 12:19:46;;;;;;;3.65;2.42;;;;;;;;;;7395133;19;20011;-53
2021/12/19 12:22:21;;;;;;;3.42;1.88;;;;;;;;;;7396220;19;20502;-62
2021/12/19 12:25:19;;;;;;;2.17;1.40;;;;;;;;;;7395851;19;20025;-53
2021/12/19 12:27:51;;;;;;;1.95;1.40;;;;;;;;;;7395453;19;20010;-54
2021/12/19 12:30:28;;;;;;;1.88;1.20;;;;;;;;;;7396080;19;20015;-49
2021/12/19 12:33:00;;;;;;;1.95;1.40;;;;;;;;;;7394012;19;20019;-55
2021/12/19 12:35:31;;;;;;;2.10;1.30;;;;;;;;;;7396103;19;20010;-60
2021/12/19 12:38:00;;;;;;;1.77;1.50;;;;;;;;;;7396157;19;20012;-49
2021/12/19 12:40:53;;;;;;;2.10;1.40;;;;;;;;;;7396333;19;20075;-61
2021/12/19 12:43:23;;;;;;;1.95;1.27;;;;;;;;;;7396141;19;20021;-53
2021/12/19 12:45:54;;;;;;;1.98;1.25;;;;;;;;;;7394156;19;20018;-55
2021/12/19 12:48:26;;;;;;;2.75;1.40;;;;;;;;;;7395416;19;20542;-53
2021/12/19 12:50:54;;;;;;;1.88;1.35;;;;;;;;;;7395457;19;20475;-61
2021/12/19 12:53:30;;;;;;;1.38;1.15;;;;;;;;;;7396298;19;20014;-58
2021/12/19 12:56:14;;;;;;;1.65;1.23;;;;;;;;;;7395278;19;20483;-60
2021/12/19 12:58:45;;;;;;;51.78;20.17;;;;;;;;;;7395049;19;20017;-53
2021/12/19 13:01:14;;;;;;;7.95;4.35;;;;;;;;;;7394425;19;20038;-56
2021/12/19 13:03:58;;;;;;;5.10;2.33;;;;;;;;;;7395267;19;20099;-59
2021/12/19 13:06:44;;;;;;;3.47;2.00;;;;;;;;;;7394768;19;20011;-59
2021/12/19 13:09:13;;;;;;;2.33;1.40;;;;;;;;;;7394668;19;20007;-59
2021/12/19 13:11:41;;;;;;;2.67;1.48;;;;;;;;;;7393162;19;20018;-61
2021/12/19 13:14:17;;;;;;;1.45;1.13;;;;;;;;;;7394797;19;20010;-58
2021/12/19 13:16:52;;;;;;;2.55;1.67;;;;;;;;;;7394864;19;20020;-60
2021/12/19 13:19:40;;;;;;;1.90;1.40;;;;;;;;;;7394580;19;20058;-59
2021/12/19 13:22:10;;;;;;;1.90;1.35;;;;;;;;;;7394738;19;20010;-63
2021/12/19 13:24:39;;;;;;;2.20;1.35;;;;;;;;;;7394233;19;20496;-60
2021/12/19 13:27:21;;;;;;;4.20;1.50;;;;;;;;;;7394392;19;20049;-59
2021/12/19 13:30:10;;;;;;;2.22;1.30;;;;;;;;;;7394045;19;20037;-61
2021/12/19 13:32:40;;;;;;;1.60;1.20;;;;;;;;;;7392337;19;20011;-49
2021/12/19 13:35:14;;;;;;;57.90;22.63;;;;;;;;;;7393816;19;20010;-60
2021/12/19 13:38:03;;;;;;;2.67;1.75;;;;;;;;;;7394114;19;20015;-58
2021/12/19 13:40:35;;;;;;;2.03;1.20;;;;;;;;;;7393466;19;20038;-57
2021/12/19 13:43:12;;;;;;;2.50;1.75;;;;;;;;;;7393749;19;20013;-62
2021/12/19 13:45:48;;;;;;;2.38;1.45;;;;;;;;;;7392581;19;20030;-58
2021/12/19 13:48:19;;;;;;;2.15;1.65;;;;;;;;;;7393223;19;20034;-57
2021/12/19 13:50:55;;;;;;;2.47;1.58;;;;;;;;;;7393266;19;20045;-58
2021/12/19 13:53:25;;;;;;;2.67;1.45;;;;;;;;;;7394683;19;20007;-60
2021/12/19 13:55:57;;;;;;;2.03;1.42;;;;;;;;;;7393349;19;20013;-57
2021/12/19 13:58:38;;;;;;;2.80;1.63;;;;;;;;;;7393537;19;20015;-57
2021/12/19 14:01:24;;;;;;;2.28;1.48;;;;;;;;;;7393094;19;20010;-59
2021/12/19 14:03:59;;;;;;;4.20;1.83;;;;;;;;;;7393085;19;20017;-63
2021/12/19 14:06:35;;;;;;;63.20;21.85;;;;;;;;;;7391542;19;20015;-60
2021/12/19 14:09:06;;;;;;;5.85;2.95;;;;;;;;;;7391973;19;20014;-61
2021/12/19 14:11:40;;;;;;;1.95;1.40;;;;;;;;;;7390205;19;20010;-63
2021/12/19 14:14:23;;;;;;;2.30;1.55;;;;;;;;;;7393135;19;20018;-62
2021/12/19 14:17:02;;;;;;;2.97;1.63;;;;;;;;;;7392398;19;20050;-58
2021/12/19 14:19:34;;;;;;;2.97;1.58;;;;;;;;;;7392200;19;20093;-59
2021/12/19 14:22:02;;;;;;;3.08;1.60;;;;;;;;;;7392452;19;20026;-58
2021/12/19 14:24:52;;;;;;;3.38;1.65;;;;;;;;;;7392564;19;20014;-60
2021/12/19 14:27:26;;;;;;;3.05;1.48;;;;;;;;;;7392306;19;20480;-61
2021/12/19 14:30:01;;;;;;;3.55;1.65;;;;;;;;;;7391531;19;20034;-59
2021/12/19 14:32:34;;;;;;;2.80;1.70;;;;;;;;;;7391772;19;20010;-58
2021/12/19 14:35:15;;;;;;;2.93;1.70;;;;;;;;;;7391804;19;20021;-57
2021/12/19 14:37:50;;;;;;;1.92;1.50;;;;;;;;;;7392022;19;20010;-60
2021/12/19 14:40:30;;;;;;;2.58;1.60;;;;;;;;;;7391561;19;20006;-60
2021/12/19 14:43:09;;;;;;;2.90;1.30;;;;;;;;;;7392283;19;20018;-59
2021/12/19 14:45:48;;;;;;;3.05;1.73;;;;;;;;;;7390812;19;20027;-59
2021/12/19 14:48:32;;;;;;;2.75;1.40;;;;;;;;;;7391533;19;20022;-59
2021/12/19 14:51:01;;;;;;;2.67;1.58;;;;;;;;;;7391785;19;20014;-59
2021/12/19 14:53:39;;;;;;;4.72;3.55;;;;;;;;;;7391374;19;20015;-59
2021/12/19 14:56:14;;;;;;;10.73;4.72;;;;;;;;;;7391563;19;20007;-63
2021/12/19 14:58:45;;;;;;;31.27;11.85;;;;;;;;;;7391292;19;20014;-55
2021/12/19 15:01:18;;;;;;;5.63;2.67;;;;;;;;;;7390744;19;20601;-62
2021/12/19 15:03:54;;;;;;;3.85;1.80;;;;;;;;;;7391233;19;20014;-59
2021/12/19 15:06:24;;;;;;;4.22;1.40;;;;;;;;;;7390926;19;20010;-58
2021/12/19 15:08:53;;;;;;;2.72;1.65;;;;;;;;;;7391312;19;20010;-57
2021/12/19 15:11:22;;;;;;;2.80;1.30;;;;;;;;;;7390430;19;20031;-61
2021/12/19 15:13:52;;;;;;;3.47;1.63;;;;;;;;;;7390636;19;20024;-60
2021/12/19 15:16:19;;;;;;;3.28;1.55;;;;;;;;;;7390954;19;20033;-57
2021/12/19 15:18:47;;;;;;;2.72;1.38;;;;;;;;;;7390639;19;20011;-58
2021/12/19 15:21:15;;;;;;;3.30;1.63;;;;;;;;;;7390637;19;20017;-60
2021/12/19 15:23:43;;;;;;;2.88;1.42;;;;;;;;;;7395819;19;20347;-60
2021/12/19 15:26:14;;;;;;;3.35;1.73;;;;;;;;;;7397948;19;20006;-60
2021/12/19 15:28:44;;;;;;;2.92;1.50;;;;;;;;;;7398418;19;20050;-60
2021/12/19 15:31:13;;;;;;;3.75;1.38;;;;;;;;;;7397413;19;20014;-61
2021/12/19 15:33:41;;;;;;;21.38;8.10;;;;;;;;;;7395138;19;20010;-59
2021/12/19 15:36:09;;;;;;;5.93;2.63;;;;;;;;;;7397791;19;20025;-57
2021/12/19 15:38:36;;;;;;;2.67;1.40;;;;;;;;;;7398004;19;20006;-61
2021/12/19 15:41:04;;;;;;;3.97;1.50;;;;;;;;;;7397637;19;20010;-61
2021/12/19 15:43:32;;;;;;;2.28;1.58;;;;;;;;;;7397788;19;20011;-57
2021/12/19 15:46:00;;;;;;;3.08;1.30;;;;;;;;;;7394355;19;20015;-57
2021/12/19 15:48:27;;;;;;;3.28;1.38;;;;;;;;;;7397959;19;20467;-60
2021/12/19 15:50:55;;;;;;;2.28;1.35;;;;;;;;;;7397840;19;20070;-58
2021/12/19 15:53:24;;;;;;;2.92;1.85;;;;;;;;;;7395663;19;20017;-56
2021/12/19 15:55:55;;;;;;;2.90;1.38;;;;;;;;;;7397143;19;20003;-60
2021/12/19 15:58:23;;;;;;;2.78;1.33;;;;;;;;;;7397067;19;20093;-61
2021/12/19 16:00:50;;;;;;;1.70;1.17;;;;;;;;;;7397091;19;20384;-61
2021/12/19 16:03:19;;;;;;;3.53;1.40;;;;;;;;;;7396918;19;20023;-61
2021/12/19 16:05:48;;;;;;;18.50;7.13;;;;;;;;;;7396570;19;20083;-57
2021/12/19 16:08:15;;;;;;;3.95;2.15;;;;;;;;;;7396582;19;20035;-61
2021/12/19 16:10:43;;;;;;;6.05;2.55;;;;;;;;;;7396757;19;20037;-62
2021/12/19 16:13:13;;;;;;;3.33;1.42;;;;;;;;;;7394979;19;20015;-60
2021/12/19 16:15:40;;;;;;;3.08;1.88;;;;;;;;;;7371741;19;20014;-59